Time;durP1;ratioP1;P1;durP2;ratioP2;P2;SDS_P1;SDS_P2;PMS_P1;PMS_P2;Temp;Humidity;BMP_temperature;BMP_pressure;BME280_temperature;BME280_humidity;BME280_pressure;Samples;Min_cycle;Max_cycle;Signal;HPM_P1;HPM_P2
2021/11/25 00:01:33;;;;;;;58.52;26.73;;;;;;;-3.22;76.52;101247.90;1691788;85;21232;-77
2021/11/25 00:04:38;;;;;;;57.95;26.97;;;;;;;-3.20;76.66;101248.69;1691976;85;21713;-76
2021/11/25 00:07:45;;;;;;;46.63;25.97;;;;;;;-3.21;76.57;101253.17;1691657;85;21232;-76
2021/11/25 00:10:52;;;;;;;57.93;27.30;;;;;;;-3.22;76.72;101250.11;1691859;85;21610;-78
2021/11/25 00:13:58;;;;;;;60.00;26.10;;;;;;;-3.21;76.88;101250.97;1693106;85;21369;-84
2021/11/25 00:17:04;;;;;;;55.08;26.50;;;;;;;-3.14;77.22;101261.83;1692279;83;21247;-83
2021/11/25 00:20:14;;;;;;;48.68;25.17;;;;;;;-3.06;77.20;101257.47;1692052;85;21350;-77
2021/11/25 00:23:20;;;;;;;47.65;24.43;;;;;;;-3.02;77.11;101251.05;1692986;85;21315;-80
2021/11/25 00:26:26;;;;;;;55.38;26.30;;;;;;;-3.02;77.07;101243.88;1692661;85;21397;-84
2021/11/25 00:29:31;;;;;;;54.35;25.00;;;;;;;-3.02;77.06;101241.20;1692660;85;21343;-84
2021/11/25 00:32:37;;;;;;;62.73;25.00;;;;;;;-3.09;76.58;101244.63;1695070;84;21821;-84
2021/11/25 00:35:41;;;;;;;43.38;21.87;;;;;;;-3.12;76.45;101235.86;1709815;84;21176;-76
2021/11/25 00:38:48;;;;;;;42.25;23.52;;;;;;;-3.20;76.56;101234.88;1709787;84;21177;-76
2021/11/25 00:41:54;;;;;;;43.40;21.75;;;;;;;-3.23;76.66;101226.09;1709104;84;21347;-84
2021/11/25 00:45:00;;;;;;;50.48;24.80;;;;;;;-3.27;76.77;101234.72;1709760;84;21181;-83
2021/11/25 00:48:06;;;;;;;56.63;25.92;;;;;;;-3.32;76.86;101230.03;1709700;84;21323;-76
2021/11/25 00:51:11;;;;;;;52.80;25.32;;;;;;;-3.34;76.84;101231.89;1708178;82;21189;-84
2021/11/25 00:54:18;;;;;;;57.70;25.30;;;;;;;-3.39;76.83;101232.12;1708326;84;21903;-77
2021/11/25 00:57:23;;;;;;;61.13;27.90;;;;;;;-3.44;76.76;101229.20;1708255;84;21394;-77
2021/11/25 01:00:30;;;;;;;54.80;27.20;;;;;;;-3.51;77.04;101229.08;1709689;84;21292;-83
2021/11/25 01:03:36;;;;;;;57.17;26.68;;;;;;;-3.53;77.32;101226.45;1709480;84;21933;-77
2021/11/25 01:06:42;;;;;;;54.00;25.25;;;;;;;-3.56;77.30;101224.39;1709029;84;21359;-77
2021/11/25 01:09:48;;;;;;;43.70;21.57;;;;;;;-3.61;77.37;101224.58;1709572;84;21506;-84
2021/11/25 01:12:54;;;;;;;47.75;22.35;;;;;;;-3.64;77.34;101230.05;1708386;84;21296;-84
2021/11/25 01:16:00;;;;;;;50.48;25.40;;;;;;;-3.78;77.15;101222.59;1709725;82;21330;-76
2021/11/25 01:19:08;;;;;;;59.30;23.73;;;;;;;-3.85;77.64;101229.14;1708488;84;21193;-77
2021/11/25 01:22:13;;;;;;;43.10;23.22;;;;;;;-3.95;77.77;101227.31;1708620;82;21371;-83
2021/11/25 01:25:18;;;;;;;58.33;23.80;;;;;;;-4.10;78.03;101235.91;1709591;84;21366;-77
2021/11/25 01:28:24;;;;;;;49.23;24.10;;;;;;;-4.16;78.62;101227.67;1707857;84;21252;-84
2021/11/25 01:31:31;;;;;;;54.73;24.50;;;;;;;-4.13;78.96;101230.71;1708304;84;21156;-76
2021/11/25 01:37:50;;;;;;;63.58;28.70;;;;;;;-4.02;79.51;101220.92;1755454;81;21167;-76
2021/11/25 01:40:57;;;;;;;74.25;32.13;;;;;;;-3.96;79.52;101225.54;1754433;81;21285;-76
2021/11/25 01:44:02;;;;;;;67.25;31.87;;;;;;;-3.92;79.41;101220.48;1755279;81;21321;-76
2021/11/25 01:47:10;;;;;;;63.75;31.37;;;;;;;-3.86;79.53;101229.61;1753524;81;21166;-76
2021/11/25 01:50:15;;;;;;;70.47;30.10;;;;;;;-3.82;79.42;101224.98;1742373;82;22520;-76
2021/11/25 01:53:21;;;;;;;74.15;30.12;;;;;;;-3.76;79.47;101226.56;1742890;82;21307;-76
2021/11/25 01:56:27;;;;;;;70.00;30.35;;;;;;;-3.76;79.61;101224.75;1742954;82;22573;-76
2021/11/25 01:59:33;;;;;;;64.20;30.17;;;;;;;-3.69;79.74;101232.05;1741377;82;21754;-76
2021/11/25 02:02:38;;;;;;;61.13;29.07;;;;;;;-3.65;79.59;101233.66;1742792;81;21294;-75
2021/11/25 02:05:45;;;;;;;71.97;30.75;;;;;;;-3.64;79.40;101226.91;1742303;82;21651;-75
2021/11/25 02:08:50;;;;;;;66.60;28.73;;;;;;;-3.69;79.34;101225.36;1742765;82;21184;-76
2021/11/25 02:11:55;;;;;;;62.70;27.70;;;;;;;-3.71;79.47;101228.11;1741573;82;21390;-75
2021/11/25 02:15:01;;;;;;;73.10;31.70;;;;;;;-3.76;79.72;101231.91;1743764;82;21279;-75
2021/11/25 02:18:07;;;;;;;71.15;31.42;;;;;;;-3.75;80.18;101232.30;1755345;81;21307;-75
2021/11/25 02:21:12;;;;;;;77.27;33.23;;;;;;;-3.75;80.21;101233.64;1772832;81;21342;-76
2021/11/25 02:24:18;;;;;;;74.05;32.88;;;;;;;-3.77;80.33;101231.01;1773515;81;21236;-77
2021/11/25 02:27:29;;;;;;;84.35;33.42;;;;;;;-3.76;80.48;101233.25;1772356;80;22614;-76
2021/11/25 02:30:35;;;;;;;65.80;33.55;;;;;;;-3.77;80.68;101231.48;1772260;81;21361;-75
2021/11/25 02:33:40;;;;;;;85.70;35.73;;;;;;;-3.74;80.64;101222.01;1760727;81;21312;-75
2021/11/25 02:36:47;;;;;;;86.50;36.58;;;;;;;-3.75;80.55;101226.96;1752203;81;21867;-75
2021/11/25 02:39:52;;;;;;;75.83;34.80;;;;;;;-3.75;80.67;101222.95;1751047;82;21324;-76
2021/11/25 02:43:01;;;;;;;80.65;32.90;;;;;;;-3.79;80.64;101218.66;1690414;85;21321;-76
2021/11/25 02:46:08;;;;;;;69.47;31.80;;;;;;;-3.79;81.03;101217.32;1721581;83;21277;-76
2021/11/25 02:49:13;;;;;;;66.57;28.50;;;;;;;-3.76;81.34;101218.55;1720336;83;21179;-76
2021/11/25 02:52:20;;;;;;;68.62;30.45;;;;;;;-3.86;80.57;101216.68;1719203;83;21650;-76
2021/11/25 02:55:26;;;;;;;69.92;30.75;;;;;;;-3.98;80.23;101220.73;1720208;83;21310;-76
2021/11/25 02:58:33;;;;;;;71.90;31.23;;;;;;;-4.00;80.50;101213.70;1720401;83;21324;-76
2021/11/25 03:01:43;;;;;;;78.40;32.35;;;;;;;-3.99;80.81;101214.13;1719693;83;21813;-76
2021/11/25 03:04:48;;;;;;;77.75;33.13;;;;;;;-4.02;80.79;101217.78;1696564;84;21208;-76
2021/11/25 03:07:55;;;;;;;72.30;35.43;;;;;;;-4.13;80.69;101216.02;1695210;84;21235;-75
2021/11/25 03:11:13;;;;;;;76.75;33.38;;;;;;;-4.18;80.82;101214.86;1696733;84;21905;-76
2021/11/25 03:14:20;;;;;;;72.03;31.42;;;;;;;-4.17;81.03;101219.27;1695467;84;21842;-76
2021/11/25 03:17:25;;;;;;;75.17;32.15;;;;;;;-4.16;80.82;101218.33;1698416;84;21371;-75
2021/11/25 03:20:31;;;;;;;70.75;32.90;;;;;;;-4.13;80.98;101217.34;1698316;84;21341;-75
2021/11/25 03:23:39;;;;;;;73.12;31.57;;;;;;;-4.15;80.88;101214.72;1710603;84;21949;-75
2021/11/25 03:26:45;;;;;;;81.08;34.78;;;;;;;-4.15;80.88;101216.52;1710488;84;21342;-75
2021/11/25 03:29:50;;;;;;;73.78;33.08;;;;;;;-4.14;81.00;101216.48;1710599;84;21583;-75
2021/11/25 03:32:56;;;;;;;76.53;35.73;;;;;;;-4.07;81.07;101210.88;1709599;84;21374;-75
2021/11/25 03:36:03;;;;;;;77.27;37.78;;;;;;;-4.07;80.56;101218.43;1710310;84;21200;-75
2021/11/25 03:39:09;;;;;;;77.55;35.78;;;;;;;-4.12;80.35;101221.28;1717032;82;21359;-75
2021/11/25 03:42:14;;;;;;;72.85;35.25;;;;;;;-4.13;80.36;101208.00;1720202;83;21733;-76
2021/11/25 03:45:20;;;;;;;71.05;35.23;;;;;;;-4.15;80.31;101207.17;1720360;83;21902;-77
2021/11/25 03:48:30;;;;;;;92.72;41.42;;;;;;;-4.13;80.55;101201.31;1714321;83;21324;-77
2021/11/25 03:51:36;;;;;;;92.45;43.70;;;;;;;-4.12;80.44;101207.05;1660995;86;21334;-77
2021/11/25 03:54:42;;;;;;;84.70;38.88;;;;;;;-4.17;80.30;101203.23;1688998;85;21700;-77
2021/11/25 03:57:47;;;;;;;80.47;37.30;;;;;;;-4.19;80.30;101211.79;1719570;83;21336;-77
2021/11/25 04:00:53;;;;;;;84.22;38.33;;;;;;;-4.23;80.02;101211.50;1720836;83;21351;-76
2021/11/25 04:03:59;;;;;;;85.90;39.45;;;;;;;-4.25;80.10;101209.80;1743813;82;21377;-75
2021/11/25 04:07:05;;;;;;;82.22;38.15;;;;;;;-4.25;80.30;101216.48;1691348;85;21790;-76
2021/11/25 04:10:12;;;;;;;87.45;38.13;;;;;;;-4.25;80.42;101212.48;1707010;84;21216;-75
2021/11/25 04:13:18;;;;;;;95.03;43.28;;;;;;;-4.24;80.61;101211.54;1691225;85;21357;-76
2021/11/25 04:16:25;;;;;;;105.12;44.50;;;;;;;-4.22;80.86;101212.37;1702593;84;21301;-76
2021/11/25 04:19:31;;;;;;;92.10;42.17;;;;;;;-4.21;81.18;101215.44;1690182;85;21294;-76
2021/11/25 04:22:37;;;;;;;85.92;37.17;;;;;;;-4.20;81.48;101214.03;1750195;82;21659;-76
2021/11/25 04:25:43;;;;;;;71.57;34.70;;;;;;;-4.18;81.61;101220.67;1750356;82;22149;-75
2021/11/25 04:28:50;;;;;;;70.08;31.75;;;;;;;-4.21;81.51;101216.77;1749044;82;21833;-75
2021/11/25 04:35:33;;;;;;;76.07;32.40;;;;;;;-4.20;81.87;101219.38;1750303;82;21176;-76
2021/11/25 04:38:39;;;;;;;63.35;31.95;;;;;;;-4.16;81.98;101217.45;1718507;82;21199;-76
2021/11/25 04:41:44;;;;;;;63.23;31.93;;;;;;;-4.12;82.12;101204.39;1688419;85;21197;-75
2021/11/25 04:44:50;;;;;;;71.70;32.78;;;;;;;-4.12;82.16;101217.75;1695131;83;22559;-75
2021/11/25 04:47:55;;;;;;;66.87;32.63;;;;;;;-4.13;82.46;101217.34;1714067;82;21252;-76
2021/11/25 04:51:01;;;;;;;65.32;31.80;;;;;;;-4.11;82.36;101212.33;1664567;86;21826;-76
2021/11/25 04:54:06;;;;;;;72.20;35.88;;;;;;;-4.02;82.23;101217.78;1728653;83;21306;-75
2021/11/25 04:57:12;;;;;;;78.52;34.30;;;;;;;-3.96;81.85;101212.17;1732110;81;21850;-75
2021/11/25 05:00:17;;;;;;;73.30;32.05;;;;;;;-3.90;81.29;101219.97;1746349;82;21913;-75
2021/11/25 05:03:23;;;;;;;71.92;32.65;;;;;;;-3.90;80.92;101223.98;1738772;81;21361;-75
2021/11/25 05:06:29;;;;;;;75.47;35.15;;;;;;;-3.90;80.68;101225.31;1726183;83;21833;-75
2021/11/25 05:09:34;;;;;;;70.80;32.30;;;;;;;-3.89;80.54;101232.39;1720516;83;21890;-75
2021/11/25 05:12:39;;;;;;;70.65;31.12;;;;;;;-3.91;80.41;101230.23;1720215;83;21320;-75
2021/11/25 05:15:46;;;;;;;74.55;32.00;;;;;;;-3.94;80.32;101237.06;1720145;83;21329;-76
2021/11/25 05:18:51;;;;;;;72.55;33.75;;;;;;;-3.97;80.25;101236.30;1696101;83;21867;-76
2021/11/25 05:21:59;;;;;;;90.72;39.42;;;;;;;-3.94;80.41;101241.06;1728027;83;21213;-77
2021/11/25 05:25:05;;;;;;;75.50;37.03;;;;;;;-3.94;80.31;101247.75;1721175;83;21225;-77
2021/11/25 05:28:11;;;;;;;101.53;39.40;;;;;;;-3.88;80.98;101247.49;1727359;83;21334;-77
2021/11/25 05:31:17;;;;;;;94.03;38.85;;;;;;;-3.73;81.78;101244.66;1721337;83;22007;-76
2021/11/25 05:34:23;;;;;;;85.97;38.33;;;;;;;-3.58;82.24;101253.85;1715517;83;21905;-76
2021/11/25 05:37:29;;;;;;;96.87;43.30;;;;;;;-3.43;82.53;101256.39;1713340;83;21185;-76
2021/11/25 05:40:35;;;;;;;89.07;38.90;;;;;;;-3.31;83.44;101257.66;1713418;82;21280;-76
2021/11/25 05:43:42;;;;;;;85.87;37.95;;;;;;;-3.16;84.61;101259.20;1720904;82;21322;-76
2021/11/25 05:46:49;;;;;;;76.72;35.48;;;;;;;-2.98;85.41;101260.69;1689055;83;21195;-76
2021/11/25 05:49:54;;;;;;;61.37;32.25;;;;;;;-2.88;86.12;101262.89;1701262;82;21244;-77
2021/11/25 05:53:03;;;;;;;80.85;35.13;;;;;;;-2.71;86.91;101271.52;1713804;82;21161;-76
2021/11/25 05:56:11;;;;;;;75.42;35.00;;;;;;;-2.55;87.67;101273.03;1719959;82;21121;-77
2021/11/25 05:59:45;;;;;;;180.95;64.72;;;;;;;-2.35;88.43;101269.00;1681261;85;21548;-79
2021/11/25 06:02:56;;;;;;;169.65;61.35;;;;;;;-2.14;88.82;101260.41;1702298;81;21306;-78
2021/11/25 06:06:05;;;;;;;101.15;44.55;;;;;;;-1.95;89.28;101259.55;1704424;81;21299;-78
2021/11/25 06:09:10;;;;;;;58.60;31.30;;;;;;;-1.77;89.77;101266.70;1742649;80;21287;-77
2021/11/25 06:12:17;;;;;;;54.08;28.55;;;;;;;-1.60;90.15;101272.57;1743093;80;21362;-76
2021/11/25 06:15:23;;;;;;;46.45;23.92;;;;;;;-1.44;90.76;101275.39;1744432;80;21333;-77
2021/11/25 06:18:31;;;;;;;41.90;22.77;;;;;;;-1.31;91.42;101277.38;1736787;80;21611;-75
2021/11/25 06:21:38;;;;;;;36.85;20.70;;;;;;;-1.24;91.83;101274.37;1739784;80;21229;-77
2021/11/25 06:24:44;;;;;;;36.60;20.17;;;;;;;-1.15;92.37;101281.50;1739016;81;21228;-77
2021/11/25 06:27:50;;;;;;;39.42;19.35;;;;;;;-1.14;92.59;101275.17;1739349;80;21311;-77
2021/11/25 06:30:56;;;;;;;36.13;22.75;;;;;;;-1.10;92.92;101281.27;1740902;80;21297;-77
2021/11/25 06:34:01;;;;;;;32.55;19.87;;;;;;;-1.08;93.23;101291.47;1738306;81;21367;-77
2021/11/25 06:37:06;;;;;;;28.45;16.77;;;;;;;-1.00;93.63;101298.64;1736712;80;21328;-77
2021/11/25 06:40:12;;;;;;;33.67;18.70;;;;;;;-0.91;94.00;101292.80;1739234;80;21260;-77
2021/11/25 06:43:18;;;;;;;31.90;20.02;;;;;;;-0.85;94.20;101290.26;1738354;80;21244;-77
2021/11/25 06:46:23;;;;;;;44.80;22.85;;;;;;;-0.77;94.59;101284.02;1734243;81;21203;-77
2021/11/25 06:49:30;;;;;;;37.28;23.18;;;;;;;-0.65;95.08;101280.70;1741745;80;21330;-78
2021/11/25 06:52:35;;;;;;;39.90;23.47;;;;;;;-0.52;95.36;101271.48;1737653;80;21262;-79
2021/11/25 06:55:42;;;;;;;30.95;19.05;;;;;;;-0.40;95.53;101273.53;1735343;80;21321;-79
2021/11/25 06:58:50;;;;;;;38.00;22.35;;;;;;;-0.27;95.80;101269.71;1719012;80;21618;-78
2021/11/25 07:01:58;;;;;;;38.90;24.12;;;;;;;-0.12;96.04;101270.69;1738749;81;21291;-78
2021/11/25 07:05:06;;;;;;;46.55;24.60;;;;;;;0.04;96.07;101272.90;1737110;80;21294;-78
2021/11/25 07:08:11;;;;;;;48.25;25.50;;;;;;;0.13;95.80;101277.77;1736913;80;21280;-76
2021/11/25 07:11:16;;;;;;;38.80;20.72;;;;;;;0.28;95.76;101269.78;1729707;80;21957;-78
2021/11/25 07:14:22;;;;;;;42.83;21.52;;;;;;;0.41;95.60;101274.86;1735722;81;21206;-78
2021/11/25 07:17:29;;;;;;;44.42;24.18;;;;;;;0.53;95.32;101273.30;1734725;80;21276;-78
2021/11/25 07:20:37;;;;;;;42.20;24.27;;;;;;;0.60;94.91;101276.88;1734836;80;22333;-78
2021/11/25 07:23:42;;;;;;;31.82;18.20;;;;;;;0.67;94.67;101282.80;1737243;80;21341;-77
2021/11/25 07:26:48;;;;;;;42.62;23.90;;;;;;;0.74;94.50;101272.91;1737846;81;22191;-78
2021/11/25 07:29:55;;;;;;;34.25;20.82;;;;;;;0.71;93.81;101273.11;1733845;80;21233;-78
2021/11/25 07:33:02;;;;;;;38.58;22.65;;;;;;;0.65;93.36;101265.36;1736297;80;21190;-79
2021/11/25 07:36:07;;;;;;;43.30;23.73;;;;;;;0.52;92.96;101264.36;1704854;82;22546;-77
2021/11/25 07:39:18;;;;;;;41.90;24.92;;;;;;;0.46;93.16;101275.47;1738409;81;21631;-77
2021/11/25 07:42:25;;;;;;;46.73;26.30;;;;;;;0.46;93.31;101269.59;1723956;81;21229;-76
2021/11/25 07:45:33;;;;;;;44.63;27.13;;;;;;;0.46;93.32;101270.08;1735213;81;21481;-77
2021/11/25 07:48:47;;;;;;;48.25;26.37;;;;;;;0.49;93.38;101273.95;1701663;82;21655;-77
2021/11/25 07:51:59;;;;;;;47.43;24.70;;;;;;;0.59;93.57;101274.29;1666054;84;21328;-77
2021/11/25 07:55:09;;;;;;;56.13;27.48;;;;;;;0.70;93.94;101268.65;1736451;81;21224;-78
2021/11/25 07:58:16;;;;;;;46.35;26.15;;;;;;;0.82;93.87;101268.42;1739465;80;21167;-76
2021/11/25 08:01:22;;;;;;;51.45;30.17;;;;;;;0.92;93.82;101265.56;1739507;80;21228;-76
2021/11/25 08:04:47;;;;;;;48.13;27.10;;;;;;;0.95;93.45;101265.40;1736970;80;21368;-77
2021/11/25 08:07:46;;;;;;;47.55;26.42;;;;;;;0.99;93.46;101263.39;1737173;80;21892;-76
2021/11/25 08:10:46;;;;;;;46.13;27.27;;;;;;;1.05;93.52;101270.23;1738549;80;21334;-79
2021/11/25 08:14:02;;;;;;;40.92;22.17;;;;;;;1.10;93.60;101270.34;1691633;83;21329;-78
2021/11/25 08:17:10;;;;;;;46.20;27.02;;;;;;;1.15;93.61;101272.28;1738900;80;21143;-78
2021/11/25 08:20:18;;;;;;;45.15;26.45;;;;;;;1.19;93.48;101268.92;1737485;80;21727;-78
2021/11/25 08:23:24;;;;;;;52.35;25.88;;;;;;;1.20;93.27;101269.30;1744330;80;21688;-77
2021/11/25 08:26:39;;;;;;;40.35;24.20;;;;;;;1.26;93.46;101261.70;1709393;82;21191;-77
2021/11/25 08:29:48;;;;;;;37.42;22.13;;;;;;;1.39;93.51;101259.61;1678462;83;21188;-77
2021/11/25 08:32:54;;;;;;;37.40;23.92;;;;;;;1.48;93.28;101259.91;1683941;83;21180;-77
2021/11/25 08:36:08;;;;;;;40.55;22.00;;;;;;;1.53;92.97;101252.88;1705769;82;21260;-76
2021/11/25 08:39:15;;;;;;;50.63;23.55;;;;;;;1.60;92.67;101250.20;1725757;80;21256;-80
2021/11/25 08:42:22;;;;;;;43.80;23.15;;;;;;;1.62;92.33;101245.57;1720530;81;21318;-77
2021/11/25 08:45:34;;;;;;;41.48;23.85;;;;;;;1.68;92.18;101242.96;1736935;80;21400;-77
2021/11/25 08:48:42;;;;;;;47.27;23.90;;;;;;;1.69;91.77;101246.90;1738581;80;21314;-76
2021/11/25 08:51:49;;;;;;;45.73;24.65;;;;;;;1.74;91.53;101240.77;1735793;81;21919;-78
2021/11/25 08:54:54;;;;;;;45.98;25.45;;;;;;;1.83;91.23;101232.54;1738325;81;21600;-78
2021/11/25 08:58:01;;;;;;;43.45;23.42;;;;;;;1.91;90.64;101226.66;1697461;82;21329;-77
2021/11/25 09:01:07;;;;;;;47.78;24.65;;;;;;;1.96;89.99;101224.05;1738181;80;21294;-77
2021/11/25 09:04:15;;;;;;;43.05;24.12;;;;;;;2.00;89.17;101213.94;1736786;80;22331;-77
2021/11/25 09:07:22;;;;;;;35.92;21.37;;;;;;;2.02;88.65;101220.08;1736112;81;21621;-77
2021/11/25 09:10:35;;;;;;;40.55;22.80;;;;;;;2.04;88.18;101217.69;1738237;81;21600;-78
2021/11/25 09:13:41;;;;;;;54.55;25.88;;;;;;;2.08;87.53;101211.61;1658772;84;21224;-78
2021/11/25 09:16:49;;;;;;;36.90;21.02;;;;;;;2.15;87.07;101212.92;1716552;81;21333;-78
2021/11/25 09:19:55;;;;;;;30.37;17.95;;;;;;;2.22;86.41;101215.63;1714410;81;21598;-79
2021/11/25 09:23:12;;;;;;;31.40;18.12;;;;;;;2.24;85.89;101206.06;1713051;81;21362;-78
2021/11/25 09:26:23;;;;;;;31.12;18.48;;;;;;;2.24;85.25;101208.77;1682348;82;21243;-78
2021/11/25 09:29:32;;;;;;;33.10;19.02;;;;;;;2.25;85.03;101211.35;1654464;84;21243;-77
2021/11/25 09:32:39;;;;;;;35.03;19.75;;;;;;;2.30;85.00;101205.16;1704773;82;21434;-78
2021/11/25 09:35:48;;;;;;;21.95;12.98;;;;;;;2.38;84.75;101205.15;1737086;80;21171;-76
2021/11/25 09:38:54;;;;;;;31.15;18.17;;;;;;;2.47;84.30;101201.84;1737900;80;21836;-77
2021/11/25 09:42:00;;;;;;;38.35;20.27;;;;;;;2.49;83.84;101203.94;1740603;80;21723;-77
2021/11/25 09:45:07;;;;;;;26.82;15.90;;;;;;;2.53;83.66;101197.36;1738073;80;22513;-77
2021/11/25 09:48:16;;;;;;;35.78;18.67;;;;;;;2.58;83.36;101199.27;1702071;82;21627;-77
2021/11/25 09:51:27;;;;;;;29.67;16.85;;;;;;;2.62;82.63;101198.09;1735156;81;21320;-78
2021/11/25 09:54:30;;;;;;;25.72;16.35;;;;;;;2.66;81.96;101199.63;1735055;81;21204;-76
2021/11/25 09:57:38;;;;;;;27.82;14.15;;;;;;;2.71;81.67;101183.11;1737094;81;21211;-78
2021/11/25 10:01:02;;;;;;;24.90;16.10;;;;;;;2.77;80.81;101182.19;1825434;76;28938;-77
2021/11/25 10:04:09;;;;;;;28.10;14.78;;;;;;;2.83;80.47;101185.47;1827893;76;21239;-78
2021/11/25 10:07:17;;;;;;;21.35;13.10;;;;;;;2.89;79.91;101172.87;1835139;76;21347;-78
2021/11/25 10:10:40;;;;;;;25.27;13.98;;;;;;;2.94;79.14;101173.42;1831339;76;21323;-81
2021/11/25 10:14:02;;;;;;;17.67;10.32;;;;;;;2.99;78.69;101166.72;1825300;76;21449;-76
2021/11/25 10:17:06;;;;;;;24.60;11.03;;;;;;;3.02;77.32;101156.20;1833676;76;21280;-78
2021/11/25 10:20:19;;;;;;;18.62;10.55;;;;;;;3.01;76.05;101151.73;1838184;76;21209;-77
2021/11/25 10:23:33;;;;;;;17.52;9.13;;;;;;;3.05;76.07;101151.91;1834406;76;21248;-77
2021/11/25 10:26:39;;;;;;;17.48;9.68;;;;;;;3.09;74.78;101148.02;1836030;76;22307;-77
2021/11/25 10:29:43;;;;;;;13.78;8.83;;;;;;;3.12;73.58;101152.36;1812892;76;21197;-78
2021/11/25 10:32:51;;;;;;;14.10;8.33;;;;;;;3.10;73.15;101145.69;1803177;77;21411;-77
2021/11/25 10:42:46;;;;;;;13.88;7.50;;;;;;;3.10;70.22;101127.25;1803172;77;21126;-78
2021/11/25 10:45:53;;;;;;;17.20;8.13;;;;;;;3.09;69.71;101125.04;1737661;80;21267;-77
2021/11/25 10:48:59;;;;;;;28.07;14.35;;;;;;;3.07;68.30;101114.34;1742107;80;21169;-77
2021/11/25 10:52:06;;;;;;;39.05;20.27;;;;;;;3.05;68.12;101111.36;1770034;79;21137;-77
2021/11/25 10:55:21;;;;;;;32.78;16.60;;;;;;;3.02;68.42;101114.30;1737097;80;21197;-77
2021/11/25 10:58:28;;;;;;;29.45;16.23;;;;;;;3.05;68.55;101112.71;1710586;81;21212;-77
2021/11/25 11:01:46;;;;;;;23.30;13.13;;;;;;;3.07;68.54;101103.53;1719607;81;21365;-77
2021/11/25 11:04:53;;;;;;;22.85;10.85;;;;;;;3.12;68.70;101097.80;1721443;81;21651;-77
2021/11/25 11:07:59;;;;;;;17.73;10.15;;;;;;;3.16;68.14;101106.08;1712137;81;21207;-78
2021/11/25 11:11:11;;;;;;;21.73;10.10;;;;;;;3.17;67.78;101103.74;1699321;81;21330;-78
2021/11/25 11:14:30;;;;;;;20.10;9.43;;;;;;;3.18;67.66;101096.49;1700471;82;21741;-76
2021/11/25 11:17:46;;;;;;;15.05;8.53;;;;;;;3.20;67.39;101099.48;1669597;82;21204;-78
2021/11/25 11:20:50;;;;;;;15.28;9.03;;;;;;;3.22;66.85;101096.16;1720223;81;21212;-78
2021/11/25 11:24:05;;;;;;;15.95;8.63;;;;;;;3.24;66.24;101094.69;1749486;79;22672;-79
2021/11/25 11:27:11;;;;;;;14.63;8.95;;;;;;;3.24;65.88;101092.84;1713608;79;21187;-78
2021/11/25 11:30:17;;;;;;;14.63;8.73;;;;;;;3.26;65.94;101086.86;1750996;79;21180;-78
2021/11/25 11:33:25;;;;;;;18.20;8.28;;;;;;;3.28;65.92;101084.90;1722931;81;21280;-79
2021/11/25 11:36:31;;;;;;;14.93;8.15;;;;;;;3.28;65.90;101080.84;1782005;78;21347;-79
2021/11/25 11:39:38;;;;;;;15.78;8.35;;;;;;;3.29;66.03;101079.00;1721275;81;21204;-79
2021/11/25 11:42:44;;;;;;;15.50;8.15;;;;;;;3.32;65.98;101078.30;1751707;78;21268;-77
2021/11/25 11:46:04;;;;;;;18.55;7.72;;;;;;;3.31;65.79;101071.66;1771993;78;21906;-77
2021/11/25 11:49:10;;;;;;;19.62;8.48;;;;;;;3.31;66.13;101070.31;1768094;78;21152;-77
2021/11/25 11:52:29;;;;;;;14.93;7.50;;;;;;;3.36;65.74;101067.27;1787738;78;21372;-77
2021/11/25 11:55:51;;;;;;;12.63;7.62;;;;;;;3.35;65.26;101072.31;1722767;81;21196;-78
2021/11/25 11:59:01;;;;;;;14.95;7.33;;;;;;;3.31;65.06;101067.60;1784189;78;21188;-77
2021/11/25 12:02:08;;;;;;;16.87;7.33;;;;;;;3.31;65.03;101067.60;1783986;78;21317;-75
2021/11/25 12:05:15;;;;;;;17.30;7.47;;;;;;;3.33;65.12;101057.03;1802425;78;21838;-77
2021/11/25 12:08:35;;;;;;;18.55;7.33;;;;;;;3.37;65.24;101054.98;1797890;78;21740;-77
2021/11/25 12:11:50;;;;;;;16.57;7.97;;;;;;;3.42;65.10;101054.64;1793199;78;21902;-79
2021/11/25 12:15:03;;;;;;;16.70;6.55;;;;;;;3.45;64.87;101065.25;1769540;78;21283;-78
2021/11/25 12:18:20;;;;;;;13.70;7.40;;;;;;;3.44;63.93;101056.27;1763750;78;21385;-76
2021/11/25 12:21:54;;;;;;;14.90;6.80;;;;;;;3.40;63.59;101060.66;1771481;78;21311;-76
2021/11/25 12:25:03;;;;;;;11.57;6.70;;;;;;;3.43;63.68;101059.06;1787776;78;21309;-78
2021/11/25 12:28:33;;;;;;;11.38;7.42;;;;;;;3.46;63.26;101052.95;1788648;78;21314;-79
2021/11/25 12:31:53;;;;;;;12.30;7.08;;;;;;;3.47;62.83;101047.05;1790908;78;21736;-77
2021/11/25 12:35:09;;;;;;;10.40;6.58;;;;;;;3.49;62.54;101050.52;1764909;78;21203;-78
2021/11/25 12:38:24;;;;;;;15.03;7.15;;;;;;;3.46;62.17;101047.55;1795820;78;21925;-77
2021/11/25 12:41:29;;;;;;;11.00;7.00;;;;;;;3.44;62.17;101041.40;1791371;78;21385;-78
2021/11/25 12:44:34;;;;;;;11.65;7.08;;;;;;;3.42;62.42;101047.39;1792553;78;21316;-78
2021/11/25 12:47:39;;;;;;;10.40;7.20;;;;;;;3.39;62.39;101045.39;1797878;78;21240;-79
2021/11/25 12:50:58;;;;;;;13.43;7.50;;;;;;;3.35;62.33;101043.42;1801257;78;21830;-77
2021/11/25 12:54:13;;;;;;;65.60;23.15;;;;;;;3.33;62.20;101047.56;1725473;81;21301;-77
2021/11/25 12:57:15;;;;;;;58.23;26.90;;;;;;;3.25;61.98;101045.94;1723993;81;21330;-77
2021/11/25 13:00:27;;;;;;;27.85;15.63;;;;;;;3.16;62.12;101053.36;1733177;81;21411;-77
2021/11/25 13:03:33;;;;;;;20.62;9.53;;;;;;;3.06;62.23;101044.19;1719354;81;21192;-78
2021/11/25 13:06:38;;;;;;;17.15;8.38;;;;;;;2.97;62.28;101051.60;1785363;79;21626;-77
2021/11/25 13:09:46;;;;;;;14.47;9.10;;;;;;;2.84;62.39;101040.80;1787053;78;21359;-77
2021/11/25 13:12:52;;;;;;;16.17;8.45;;;;;;;2.75;62.67;101044.14;1726247;81;21365;-77
2021/11/25 13:16:19;;;;;;;14.80;8.78;;;;;;;2.63;62.91;101039.59;1793043;79;21355;-78
2021/11/25 13:19:37;;;;;;;19.32;7.47;;;;;;;2.49;63.27;101033.80;1786340;78;21270;-77
2021/11/25 13:22:42;;;;;;;14.83;8.58;;;;;;;2.40;63.78;101034.44;1726656;81;21381;-77
2021/11/25 13:26:02;;;;;;;13.20;7.65;;;;;;;2.30;64.07;101031.52;1793356;79;21324;-77
2021/11/25 13:29:07;;;;;;;12.98;8.58;;;;;;;2.17;64.37;101032.86;1792093;78;22299;-77
2021/11/25 13:32:21;;;;;;;18.20;9.28;;;;;;;2.01;64.83;101034.86;1789154;79;22121;-77
2021/11/25 13:35:27;;;;;;;21.70;13.83;;;;;;;1.89;65.14;101028.96;1794067;79;21625;-77
2021/11/25 13:38:35;;;;;;;19.32;10.28;;;;;;;1.77;65.53;101032.84;1787195;79;21293;-77
2021/11/25 13:41:40;;;;;;;21.77;10.48;;;;;;;1.63;65.82;101024.80;1794021;79;21929;-77
2021/11/25 13:44:53;;;;;;;21.25;10.75;;;;;;;1.46;66.20;101026.42;1791801;79;21318;-78
2021/11/25 13:47:59;;;;;;;25.52;11.25;;;;;;;1.31;66.65;101015.27;1790864;78;21257;-78
2021/11/25 13:51:09;;;;;;;26.20;13.03;;;;;;;1.16;67.14;101011.26;1794023;79;21235;-77
2021/11/25 13:54:26;;;;;;;33.55;12.15;;;;;;;1.04;67.66;101004.47;1790469;79;21866;-77
2021/11/25 13:57:31;;;;;;;22.85;10.93;;;;;;;0.91;68.20;101000.34;1790000;79;21300;-77
2021/11/25 14:00:39;;;;;;;28.95;13.50;;;;;;;0.77;68.76;101006.59;1793371;78;21323;-78
2021/11/25 14:03:47;;;;;;;23.00;11.57;;;;;;;0.64;69.37;101013.22;1795981;78;21260;-77
2021/11/25 14:06:52;;;;;;;34.53;16.17;;;;;;;0.54;69.99;101010.72;1798554;78;21153;-76
2021/11/25 14:10:00;;;;;;;51.33;18.60;;;;;;;0.41;70.47;101006.57;1795688;78;21303;-76
2021/11/25 14:13:14;;;;;;;53.60;22.42;;;;;;;0.30;71.01;101009.55;1744225;79;21275;-77
2021/11/25 14:16:30;;;;;;;43.45;17.73;;;;;;;0.15;71.54;101004.14;1775811;79;21332;-76
2021/11/25 14:19:36;;;;;;;28.92;16.07;;;;;;;0.03;72.26;101015.63;1794412;79;21312;-78
2021/11/25 14:22:41;;;;;;;35.48;16.80;;;;;;;-0.07;72.86;101011.76;1737326;81;21342;-79
2021/11/25 14:25:50;;;;;;;28.40;14.10;;;;;;;-0.16;73.24;101014.52;1751432;81;21339;-79
2021/11/25 14:32:30;;;;;;;26.55;13.13;;;;;;;-0.28;74.17;101010.73;1755106;81;21588;-79
2021/11/25 14:38:47;;;;;;;31.57;14.75;;;;;;;-0.40;75.02;101008.75;1731465;81;21302;-79
2021/11/25 14:41:55;;;;;;;33.98;15.13;;;;;;;-0.47;75.30;101011.42;1720740;83;21322;-79